createdAt,value
2022-11-27T00:01:34.678Z,6.25
2022-11-27T00:04:03.237Z,6.28
2022-11-27T00:06:32.105Z,5.80
2022-11-27T00:09:01.650Z,6.05
2022-11-27T00:11:31.664Z,6.65
2022-11-27T00:14:00.707Z,6.00
2022-11-27T00:16:29.095Z,6.18
2022-11-27T00:18:57.182Z,6.50
2022-11-27T00:21:30.724Z,6.70
2022-11-27T00:24:00.643Z,5.15
2022-11-27T00:26:34.510Z,5.68
2022-11-27T00:29:06.076Z,5.50
2022-11-27T00:31:35.044Z,5.88
2022-11-27T00:34:05.209Z,5.25
2022-11-27T00:36:34.443Z,5.60
2022-11-27T00:39:02.616Z,5.68
2022-11-27T00:41:31.110Z,5.35
2022-11-27T00:43:59.337Z,4.90
2022-11-27T00:46:30.625Z,5.32
2022-11-27T00:49:00.608Z,5.85
2022-11-27T00:51:29.252Z,5.65
2022-11-27T00:53:58.535Z,5.45
2022-11-27T00:56:30.627Z,5.10
2022-11-27T00:58:59.129Z,5.40
2022-11-27T01:01:32.951Z,4.88
2022-11-27T01:04:02.548Z,5.38
2022-11-27T01:06:31.257Z,4.88
2022-11-27T01:08:59.950Z,4.88
2022-11-27T01:11:30.658Z,5.25
2022-11-27T01:14:06.979Z,5.45
2022-11-27T01:16:38.543Z,4.80
2022-11-27T01:19:10.575Z,4.60
2022-11-27T01:21:38.458Z,4.65
2022-11-27T01:24:06.958Z,5.00
2022-11-27T01:26:35.021Z,4.80
2022-11-27T01:29:03.085Z,4.60
2022-11-27T01:31:32.594Z,4.53
2022-11-27T01:34:08.225Z,4.53
2022-11-27T01:36:36.569Z,5.03
2022-11-27T01:39:05.169Z,4.93
2022-11-27T01:41:41.155Z,5.03
2022-11-27T01:44:24.323Z,4.72
2022-11-27T01:47:01.079Z,4.95
2022-11-27T01:49:40.216Z,4.68
2022-11-27T01:54:45.893Z,4.20
2022-11-27T01:57:22.732Z,4.07
2022-11-27T01:59:52.914Z,4.30
2022-11-27T02:02:21.104Z,4.63
2022-11-27T02:04:49.171Z,4.00
2022-11-27T02:07:17.017Z,4.43
2022-11-27T02:09:45.081Z,4.25
2022-11-27T02:12:29.688Z,4.65
2022-11-27T02:14:57.677Z,4.30
2022-11-27T02:17:51.445Z,3.50
2022-11-27T02:20:22.362Z,4.35
2022-11-27T02:23:14.628Z,3.60
2022-11-27T02:25:49.302Z,4.15
2022-11-27T02:28:23.132Z,4.20
2022-11-27T02:31:00.789Z,3.63
2022-11-27T02:33:33.536Z,4.03
2022-11-27T02:39:04.560Z,4.38
2022-11-27T02:41:41.231Z,3.88
2022-11-27T02:44:10.192Z,4.45
2022-11-27T02:46:39.262Z,3.53
2022-11-27T02:49:11.448Z,3.50
2022-11-27T02:51:45.386Z,3.75
2022-11-27T02:54:18.700Z,3.58
2022-11-27T02:56:48.481Z,3.75
2022-11-27T02:59:18.265Z,4.03
2022-11-27T03:01:51.882Z,3.88
2022-11-27T03:04:27.267Z,3.88
2022-11-27T03:07:03.573Z,3.25
2022-11-27T03:09:35.859Z,3.25
2022-11-27T03:12:05.864Z,3.60
2022-11-27T03:14:35.300Z,2.97
2022-11-27T03:17:15.886Z,3.60
2022-11-27T03:19:50.835Z,3.30
2022-11-27T03:22:18.836Z,3.40
2022-11-27T03:24:46.819Z,3.20
2022-11-27T03:27:19.478Z,3.33
2022-11-27T03:29:54.683Z,3.60
2022-11-27T03:32:23.081Z,3.20
2022-11-27T03:34:51.204Z,2.88
2022-11-27T03:37:19.258Z,3.05
2022-11-27T03:39:47.149Z,2.92
2022-11-27T03:42:23.924Z,3.58
2022-11-27T03:45:03.216Z,2.78
2022-11-27T03:47:50.240Z,3.33
2022-11-27T03:50:39.712Z,2.55
2022-11-27T03:53:34.166Z,2.70
2022-11-27T03:56:12.193Z,2.40
2022-11-27T03:59:08.113Z,2.60
2022-11-27T04:01:36.688Z,2.63
2022-11-27T04:04:04.695Z,2.58
2022-11-27T04:06:32.777Z,2.53
2022-11-27T04:09:00.613Z,2.50
2022-11-27T04:11:28.484Z,2.40
2022-11-27T04:13:56.336Z,2.40
2022-11-27T04:16:24.264Z,2.40
2022-11-27T04:18:52.260Z,2.25
2022-11-27T04:21:20.172Z,2.17
2022-11-27T04:23:48.029Z,2.35
2022-11-27T04:26:16.923Z,2.45
2022-11-27T04:28:44.786Z,2.17
2022-11-27T04:31:12.683Z,2.13
2022-11-27T04:33:40.723Z,2.13
2022-11-27T04:36:08.820Z,2.50
2022-11-27T04:38:36.831Z,2.10
2022-11-27T04:41:04.880Z,2.15
2022-11-27T04:43:32.667Z,2.00
2022-11-27T04:46:00.477Z,2.33
2022-11-27T04:48:28.338Z,2.33
2022-11-27T04:50:56.619Z,2.25
2022-11-27T04:53:24.472Z,1.90
2022-11-27T04:55:52.974Z,2.17
2022-11-27T04:58:20.886Z,2.38
2022-11-27T05:00:48.810Z,2.30
2022-11-27T05:03:16.747Z,2.20
2022-11-27T05:05:44.860Z,2.17
2022-11-27T05:08:12.711Z,2.00
2022-11-27T05:10:40.617Z,2.20
2022-11-27T05:13:08.581Z,2.15
2022-11-27T05:15:36.460Z,2.08
2022-11-27T05:18:04.526Z,2.78
2022-11-27T05:20:32.436Z,2.47
2022-11-27T05:23:00.273Z,2.55
2022-11-27T05:25:28.148Z,2.40
2022-11-27T05:27:56.004Z,3.05
2022-11-27T05:30:23.962Z,2.72
2022-11-27T05:32:51.967Z,2.90
2022-11-27T05:35:19.938Z,2.60
2022-11-27T05:37:47.766Z,2.90
2022-11-27T05:40:15.686Z,2.78
2022-11-27T05:42:43.630Z,2.55
2022-11-27T05:45:11.675Z,2.55
2022-11-27T05:47:40.262Z,3.22
2022-11-27T05:50:08.655Z,2.75
2022-11-27T05:52:36.766Z,3.10
2022-11-27T05:55:07.778Z,3.15
2022-11-27T05:57:35.778Z,2.97
2022-11-27T06:00:05.713Z,3.53
2022-11-27T06:02:34.022Z,3.20
2022-11-27T06:05:01.942Z,3.38
2022-11-27T06:07:31.618Z,3.17
2022-11-27T06:09:59.565Z,3.20
2022-11-27T06:12:27.510Z,3.63
2022-11-27T06:14:55.400Z,3.42
2022-11-27T06:17:23.222Z,3.53
2022-11-27T06:19:51.847Z,3.50
2022-11-27T06:22:19.653Z,3.83
2022-11-27T06:24:47.691Z,3.60
2022-11-27T06:27:15.520Z,3.72
2022-11-27T06:29:43.515Z,3.85
2022-11-27T06:32:11.430Z,3.63
2022-11-27T06:34:39.579Z,3.92
2022-11-27T06:37:11.884Z,3.60
2022-11-27T06:39:41.014Z,4.18
2022-11-27T06:42:09.229Z,4.07
2022-11-27T06:44:40.023Z,3.65
2022-11-27T06:47:08.459Z,4.03
2022-11-27T06:49:36.339Z,4.30
2022-11-27T06:52:04.698Z,3.95
2022-11-27T06:54:32.803Z,4.35
2022-11-27T06:57:00.631Z,4.20
2022-11-27T06:59:28.545Z,3.83
2022-11-27T07:01:56.576Z,4.07
2022-11-27T07:04:24.448Z,4.03
2022-11-27T07:06:54.370Z,4.38
2022-11-27T07:09:22.167Z,4.00
2022-11-27T07:11:50.072Z,4.32
2022-11-27T07:14:17.884Z,4.65
2022-11-27T07:16:45.818Z,3.97
2022-11-27T07:19:14.868Z,4.05
2022-11-27T07:21:42.729Z,4.38
2022-11-27T07:24:10.517Z,4.63
2022-11-27T07:26:38.345Z,4.78
2022-11-27T07:29:06.219Z,4.85
2022-11-27T07:31:34.323Z,4.60
2022-11-27T07:34:02.205Z,4.85
2022-11-27T07:36:30.958Z,4.50
2022-11-27T07:38:59.028Z,4.72
2022-11-27T07:41:32.218Z,4.88
2022-11-27T07:44:05.017Z,4.25
2022-11-27T07:46:32.943Z,4.70
2022-11-27T07:49:00.922Z,5.35
2022-11-27T07:51:29.455Z,4.82
2022-11-27T07:53:57.521Z,5.10
2022-11-27T07:56:25.403Z,4.95
2022-11-27T07:58:53.318Z,5.25
2022-11-27T08:01:22.542Z,5.32
2022-11-27T08:03:50.818Z,5.25
2022-11-27T08:06:24.305Z,4.93
2022-11-27T08:08:53.086Z,5.30
2022-11-27T08:11:33.017Z,4.88
2022-11-27T08:14:03.118Z,4.97
2022-11-27T08:16:34.909Z,4.63
2022-11-27T08:19:06.136Z,4.65
2022-11-27T08:21:34.139Z,4.72
2022-11-27T08:24:02.005Z,4.28
2022-11-27T08:26:29.949Z,4.90
2022-11-27T08:28:58.589Z,4.88
2022-11-27T08:31:27.617Z,4.50
2022-11-27T08:33:56.460Z,4.68
2022-11-27T08:36:26.862Z,4.43
2022-11-27T08:38:55.696Z,4.40
2022-11-27T08:41:23.597Z,4.28
2022-11-27T08:43:51.696Z,4.85
2022-11-27T08:46:19.644Z,4.30
2022-11-27T08:48:47.891Z,3.83
2022-11-27T08:51:17.281Z,3.72
2022-11-27T08:53:45.939Z,4.03
2022-11-27T08:56:19.807Z,4.10
2022-11-27T08:58:48.023Z,4.30
2022-11-27T09:01:21.666Z,3.95
2022-11-27T09:03:50.238Z,3.83
2022-11-27T09:06:21.653Z,4.47
2022-11-27T09:08:50.074Z,4.13
2022-11-27T09:11:20.732Z,3.28
2022-11-27T09:13:49.798Z,3.92
2022-11-27T09:16:20.251Z,3.50
2022-11-27T09:18:50.841Z,3.35
2022-11-27T09:21:21.407Z,3.40
2022-11-27T09:23:54.135Z,3.42
2022-11-27T09:26:24.045Z,3.38
2022-11-27T09:28:53.327Z,3.15
2022-11-27T09:31:22.981Z,3.10
2022-11-27T09:33:54.016Z,3.05
2022-11-27T09:36:24.556Z,2.97
2022-11-27T09:38:53.289Z,3.00
2022-11-27T09:41:44.791Z,3.00
2022-11-27T09:44:15.349Z,2.90
2022-11-27T09:46:44.350Z,2.67
2022-11-27T09:49:21.591Z,2.55
2022-11-27T09:52:13.063Z,2.28
2022-11-27T09:54:55.199Z,2.45
2022-11-27T09:57:33.225Z,2.40
2022-11-27T10:00:07.861Z,2.20
2022-11-27T10:02:36.355Z,2.33
2022-11-27T10:05:14.426Z,2.53
2022-11-27T10:08:06.728Z,2.40
2022-11-27T10:10:56.182Z,2.08
2022-11-27T10:13:50.304Z,1.92
2022-11-27T10:16:40.115Z,2.28
2022-11-27T10:19:22.863Z,1.98
2022-11-27T10:22:04.262Z,1.98
2022-11-27T10:24:47.613Z,2.13
2022-11-27T10:27:28.463Z,2.10
2022-11-27T10:29:57.430Z,2.00
2022-11-27T10:35:31.138Z,1.90
2022-11-27T10:38:07.412Z,1.55
2022-11-27T10:40:48.459Z,2.15
2022-11-27T10:43:20.512Z,1.98
2022-11-27T10:45:51.599Z,2.03
2022-11-27T10:48:19.883Z,2.05
2022-11-27T10:50:48.017Z,2.03
2022-11-27T10:53:36.504Z,2.10
2022-11-27T10:56:16.301Z,1.70
2022-11-27T10:59:07.405Z,1.95
2022-11-27T11:01:57.775Z,1.50
2022-11-27T11:04:38.079Z,1.95
2022-11-27T11:07:27.936Z,1.95
2022-11-27T11:09:56.937Z,2.00
2022-11-27T11:12:24.916Z,2.10
2022-11-27T11:14:59.337Z,2.25
2022-11-27T11:17:31.222Z,1.75
2022-11-27T11:19:59.433Z,1.70
2022-11-27T11:22:29.165Z,2.10
2022-11-27T11:24:57.405Z,1.80
2022-11-27T11:27:32.503Z,2.30
2022-11-27T11:30:06.334Z,2.00
2022-11-27T11:32:40.370Z,1.80
2022-11-27T11:35:30.601Z,2.20
2022-11-27T11:37:59.558Z,2.55
2022-11-27T11:40:31.156Z,1.95
2022-11-27T11:43:05.760Z,1.92
2022-11-27T11:45:35.145Z,1.98
2022-11-27T11:48:23.040Z,1.98
2022-11-27T11:51:00.251Z,2.20
2022-11-27T11:53:34.234Z,2.30
2022-11-27T11:56:30.409Z,2.53
2022-11-27T11:59:04.321Z,2.50
2022-11-27T12:02:11.880Z,2.38
2022-11-27T12:05:16.098Z,2.67
2022-11-27T12:08:07.974Z,2.50
2022-11-27T12:13:33.221Z,2.75
2022-11-27T12:16:15.329Z,2.70
2022-11-27T12:19:10.710Z,2.78
2022-11-27T12:21:51.470Z,3.00
2022-11-27T12:24:50.018Z,3.50
2022-11-27T12:27:34.237Z,3.15
2022-11-27T12:30:19.152Z,3.05
2022-11-27T12:33:10.003Z,3.28
2022-11-27T12:35:51.341Z,3.42
2022-11-27T12:38:23.446Z,3.70
2022-11-27T12:41:09.663Z,3.83
2022-11-27T12:43:52.417Z,3.80
2022-11-27T12:46:27.225Z,3.85
2022-11-27T12:49:10.301Z,3.60
2022-11-27T12:51:49.593Z,3.78
2022-11-27T12:54:33.047Z,3.97
2022-11-27T12:57:04.125Z,3.42
2022-11-27T12:59:58.921Z,4.07
2022-11-27T13:02:41.770Z,3.75
2022-11-27T13:05:18.521Z,3.63
2022-11-27T13:07:50.321Z,3.65
2022-11-27T13:10:22.125Z,3.88
2022-11-27T13:13:06.948Z,4.28
2022-11-27T13:15:51.023Z,3.50
2022-11-27T13:18:40.161Z,3.75
2022-11-27T13:21:17.891Z,3.85
2022-11-27T13:23:45.857Z,4.07
2022-11-27T13:26:26.000Z,3.22
2022-11-27T13:29:02.380Z,4.28
2022-11-27T13:31:38.131Z,4.18
2022-11-27T13:34:20.497Z,3.67
2022-11-27T13:36:57.558Z,4.82
2022-11-27T13:39:34.435Z,3.67
2022-11-27T13:42:12.525Z,5.10
2022-11-27T13:44:44.627Z,4.10
2022-11-27T13:47:17.611Z,3.92
2022-11-27T13:49:46.634Z,3.58
2022-11-27T13:52:16.032Z,4.30
2022-11-27T13:55:01.522Z,4.22
2022-11-27T13:57:34.814Z,4.57
2022-11-27T14:00:12.358Z,3.92
2022-11-27T14:02:51.073Z,4.00
2022-11-27T14:05:36.328Z,3.90
2022-11-27T14:08:04.880Z,4.03
2022-11-27T14:10:33.472Z,4.32
2022-11-27T14:13:03.817Z,4.20
2022-11-27T14:15:35.794Z,3.88
2022-11-27T14:18:19.123Z,4.05
2022-11-27T14:20:51.772Z,3.85
2022-11-27T14:23:31.836Z,4.25
2022-11-27T14:26:19.805Z,4.53
2022-11-27T14:28:56.569Z,3.55
2022-11-27T14:31:29.232Z,3.97
2022-11-27T14:36:43.424Z,3.45
2022-11-27T14:39:25.738Z,3.60
2022-11-27T14:42:19.009Z,3.67
2022-11-27T14:44:47.500Z,3.65
2022-11-27T14:47:26.018Z,3.90
2022-11-27T14:49:56.250Z,4.30
2022-11-27T14:52:24.685Z,5.20
2022-11-27T14:54:53.525Z,5.00
2022-11-27T14:57:27.228Z,5.40
2022-11-27T15:00:15.609Z,5.07
2022-11-27T15:02:48.633Z,4.47
2022-11-27T15:05:26.386Z,4.97
2022-11-27T15:07:58.220Z,4.68
2022-11-27T15:10:32.633Z,4.40
2022-11-27T15:13:02.872Z,4.75
2022-11-27T15:15:35.518Z,4.88
2022-11-27T15:18:07.161Z,4.97
2022-11-27T15:20:44.948Z,5.13
2022-11-27T15:23:21.756Z,5.22
2022-11-27T15:26:08.321Z,4.68
2022-11-27T15:28:57.808Z,4.63
2022-11-27T15:31:31.823Z,4.40
2022-11-27T15:34:01.696Z,4.45
2022-11-27T15:36:49.617Z,4.43
2022-11-27T15:39:22.574Z,4.07
2022-11-27T15:42:01.769Z,4.10
2022-11-27T15:44:33.516Z,4.20
2022-11-27T15:47:04.049Z,4.38
2022-11-27T15:49:33.497Z,7.93
2022-11-27T15:52:02.270Z,4.80
2022-11-27T15:54:30.735Z,5.47
2022-11-27T15:56:58.721Z,5.47
2022-11-27T15:59:27.680Z,4.47
2022-11-27T16:02:00.283Z,8.05
2022-11-27T16:06:59.574Z,4.18
2022-11-27T16:09:28.336Z,3.90
2022-11-27T16:12:01.035Z,3.20
2022-11-27T16:14:30.319Z,3.17
2022-11-27T16:16:58.690Z,3.42
2022-11-27T16:19:27.773Z,3.10
2022-11-27T16:21:58.788Z,3.20
2022-11-27T16:24:27.766Z,3.00
2022-11-27T16:26:58.754Z,2.90
2022-11-27T16:29:27.484Z,3.10
2022-11-27T16:31:57.165Z,2.88
2022-11-27T16:34:25.681Z,2.88
2022-11-27T16:36:54.370Z,2.83
2022-11-27T16:39:22.840Z,2.70
2022-11-27T16:41:54.103Z,4.10
2022-11-27T16:44:22.563Z,5.07
2022-11-27T16:46:51.699Z,4.70
2022-11-27T16:49:20.332Z,4.00
2022-11-27T16:51:51.250Z,3.40
2022-11-27T16:54:20.917Z,3.20
2022-11-27T16:56:54.013Z,3.75
2022-11-27T16:59:22.377Z,3.88
2022-11-27T17:01:51.348Z,4.05
2022-11-27T17:04:20.961Z,3.13
2022-11-27T17:06:51.723Z,3.10
2022-11-27T17:09:21.089Z,3.17
2022-11-27T17:11:49.886Z,2.92
2022-11-27T17:14:20.898Z,3.10
2022-11-27T17:16:53.406Z,3.08
2022-11-27T17:19:26.851Z,2.95
2022-11-27T17:21:55.737Z,2.75
2022-11-27T17:24:26.443Z,2.83
2022-11-27T17:26:56.435Z,2.97
2022-11-27T17:29:33.651Z,3.30
2022-11-27T17:32:05.225Z,2.70
2022-11-27T17:34:34.299Z,2.50
2022-11-27T17:37:03.305Z,2.97
2022-11-27T17:39:31.632Z,2.72
2022-11-27T17:42:03.513Z,2.70
2022-11-27T17:44:31.804Z,2.60
2022-11-27T17:47:00.088Z,2.88
2022-11-27T17:49:29.853Z,2.40
2022-11-27T17:52:04.709Z,2.85
2022-11-27T17:54:35.264Z,4.03
2022-11-27T17:57:07.292Z,4.00
2022-11-27T17:59:37.282Z,3.88
2022-11-27T18:02:07.254Z,3.38
2022-11-27T18:04:38.792Z,3.00
2022-11-27T18:07:07.957Z,3.10
2022-11-27T18:09:36.767Z,2.85
2022-11-27T18:12:08.996Z,2.65
2022-11-27T18:14:37.824Z,2.72
2022-11-27T18:17:07.819Z,2.83
2022-11-27T18:19:36.768Z,2.65
2022-11-27T18:22:05.603Z,3.00
2022-11-27T18:24:34.470Z,2.97
2022-11-27T18:27:10.337Z,2.60
2022-11-27T18:29:45.979Z,2.88
2022-11-27T18:32:23.118Z,2.50
2022-11-27T18:34:54.921Z,2.92
2022-11-27T18:37:23.773Z,3.10
2022-11-27T18:39:52.272Z,2.67
2022-11-27T18:42:23.819Z,3.55
2022-11-27T18:44:57.024Z,3.30
2022-11-27T18:47:25.485Z,2.75
2022-11-27T18:49:56.277Z,3.38
2022-11-27T18:52:28.287Z,3.13
2022-11-27T18:55:01.215Z,2.75
2022-11-27T18:57:32.729Z,5.05
2022-11-27T19:00:05.156Z,3.13
2022-11-27T19:02:35.343Z,3.53
2022-11-27T19:05:05.370Z,2.90
2022-11-27T19:07:34.275Z,2.38
2022-11-27T19:10:03.621Z,2.25
2022-11-27T19:12:34.972Z,2.50
2022-11-27T19:15:03.480Z,2.45
2022-11-27T19:17:32.649Z,2.90
2022-11-27T19:20:01.859Z,2.60
2022-11-27T19:22:33.511Z,2.53
2022-11-27T19:25:02.314Z,2.25
2022-11-27T19:27:31.560Z,2.20
2022-11-27T19:30:00.717Z,2.30
2022-11-27T19:32:31.719Z,2.22
2022-11-27T19:35:05.671Z,2.45
2022-11-27T19:37:37.497Z,2.13
2022-11-27T19:40:07.764Z,2.20
2022-11-27T19:42:39.417Z,2.20
2022-11-27T19:45:08.348Z,2.00
2022-11-27T19:47:36.915Z,1.95
2022-11-27T19:50:09.411Z,2.30
2022-11-27T19:55:08.834Z,1.80
2022-11-27T19:57:38.294Z,2.10
2022-11-27T20:00:08.015Z,2.22
2022-11-27T20:02:46.095Z,2.00
2022-11-27T20:05:15.697Z,2.08
2022-11-27T20:07:49.087Z,2.05
2022-11-27T20:10:17.763Z,3.22
2022-11-27T20:12:46.627Z,3.00
2022-11-27T20:15:17.369Z,3.65
2022-11-27T20:17:45.609Z,3.15
2022-11-27T20:20:16.317Z,2.95
2022-11-27T20:22:45.016Z,3.00
2022-11-27T20:25:19.991Z,2.95
2022-11-27T20:30:21.026Z,2.50
2022-11-27T20:32:49.215Z,2.67
2022-11-27T20:35:17.636Z,2.95
2022-11-27T20:37:45.669Z,2.80
2022-11-27T20:40:14.365Z,2.60
2022-11-27T20:42:42.832Z,3.20
2022-11-27T20:45:20.204Z,3.03
2022-11-27T20:47:49.910Z,2.70
2022-11-27T20:50:18.115Z,3.03
2022-11-27T20:52:47.248Z,3.28
2022-11-27T20:55:16.045Z,2.42
2022-11-27T20:57:44.786Z,2.60
2022-11-27T21:00:13.002Z,3.33
2022-11-27T21:02:42.242Z,2.97
2022-11-27T21:05:10.481Z,2.85
2022-11-27T21:07:41.874Z,2.20
2022-11-27T21:10:13.163Z,2.53
2022-11-27T21:12:42.097Z,2.15
2022-11-27T21:15:10.823Z,2.33
2022-11-27T21:17:39.014Z,2.22
2022-11-27T21:20:08.701Z,2.38
2022-11-27T21:22:37.061Z,2.28
2022-11-27T21:25:05.832Z,2.78
2022-11-27T21:27:34.341Z,2.03
2022-11-27T21:30:02.612Z,2.50
2022-11-27T21:32:31.506Z,2.90
2022-11-27T21:35:02.660Z,2.53
2022-11-27T21:37:31.148Z,2.38
2022-11-27T21:39:59.125Z,2.40
2022-11-27T21:42:29.398Z,2.92
2022-11-27T21:44:57.338Z,2.33
2022-11-27T21:47:25.810Z,2.33
2022-11-27T21:49:54.751Z,3.22
2022-11-27T21:52:22.715Z,2.75
2022-11-27T21:54:52.975Z,2.60
2022-11-27T21:57:21.946Z,2.53
2022-11-27T21:59:50.773Z,2.88
2022-11-27T22:02:19.272Z,2.95
2022-11-27T22:04:48.233Z,2.50
2022-11-27T22:07:16.575Z,2.92
2022-11-27T22:09:44.452Z,2.80
2022-11-27T22:12:12.254Z,2.85
2022-11-27T22:14:41.621Z,2.53
2022-11-27T22:17:10.220Z,2.58
2022-11-27T22:19:42.472Z,2.80
2022-11-27T22:22:10.309Z,2.97
2022-11-27T22:24:38.216Z,2.50
2022-11-27T22:27:06.465Z,2.70
2022-11-27T22:29:34.447Z,3.78
2022-11-27T22:32:02.278Z,3.83
2022-11-27T22:34:30.321Z,3.17
2022-11-27T22:36:58.411Z,3.35
2022-11-27T22:39:26.508Z,3.20
2022-11-27T22:41:54.393Z,3.15
2022-11-27T22:44:22.433Z,3.05
2022-11-27T22:46:50.670Z,3.47
2022-11-27T22:49:19.099Z,2.28
2022-11-27T22:51:47.773Z,2.50
2022-11-27T22:54:19.712Z,2.55
2022-11-27T22:56:47.872Z,2.80
2022-11-27T22:59:33.813Z,2.30
2022-11-27T23:02:07.056Z,2.88
2022-11-27T23:04:37.929Z,2.40
2022-11-27T23:07:07.047Z,2.58
2022-11-27T23:09:35.200Z,2.92
2022-11-27T23:12:03.402Z,2.85
2022-11-27T23:14:31.543Z,2.40
2022-11-27T23:16:59.658Z,2.50
2022-11-27T23:19:27.667Z,2.55
2022-11-27T23:21:55.815Z,2.50
2022-11-27T23:24:23.664Z,2.50
2022-11-27T23:26:51.509Z,2.60
2022-11-27T23:29:19.345Z,2.13
2022-11-27T23:31:47.212Z,2.42
2022-11-27T23:34:16.252Z,2.95
2022-11-27T23:36:44.495Z,2.75
2022-11-27T23:39:14.092Z,2.47
2022-11-27T23:41:42.575Z,2.67
2022-11-27T23:44:10.651Z,2.40
2022-11-27T23:46:38.765Z,2.50
2022-11-27T23:49:06.607Z,2.45
2022-11-27T23:51:34.766Z,2.30
2022-11-27T23:54:06.370Z,2.45
2022-11-27T23:56:34.205Z,2.70
2022-11-27T23:59:02.174Z,2.85
